Time;durP1;ratioP1;P1;durP2;ratioP2;P2;SDS_P1;SDS_P2;PMS_P1;PMS_P2;Temp;Humidity;BMP_temperature;BMP_pressure;BME280_temperature;BME280_humidity;BME280_pressure;Samples;Min_cycle;Max_cycle;Signal;HPM_P1;HPM_P2
2023/06/05 00:01:58;;;;;;;6.23;4.40;;;;;;;12.51;100.00;102403.66;5006921;28;20234;-74
2023/06/05 00:04:24;;;;;;;7.27;4.43;;;;;;;12.47;100.00;102406.03;4990690;28;20195;-72
2023/06/05 00:06:53;;;;;;;6.07;3.97;;;;;;;12.45;100.00;102406.00;5005912;28;20241;-73
2023/06/05 00:09:18;;;;;;;7.37;4.30;;;;;;;12.41;100.00;102411.84;4990020;28;20309;-72
2023/06/05 00:11:44;;;;;;;6.63;3.90;;;;;;;12.34;100.00;102402.16;5008168;28;20297;-73
2023/06/05 00:14:09;;;;;;;6.13;4.27;;;;;;;12.31;100.00;102404.59;5008138;28;20289;-76
2023/06/05 00:16:35;;;;;;;7.40;4.20;;;;;;;12.23;100.00;102407.72;5006120;28;20229;-72
2023/06/05 00:19:01;;;;;;;7.63;4.20;;;;;;;12.23;100.00;102403.47;5008532;28;20278;-73
2023/06/05 00:21:28;;;;;;;6.30;4.13;;;;;;;12.20;100.00;102400.78;4989324;28;20273;-72
2023/06/05 00:23:53;;;;;;;6.70;4.10;;;;;;;12.15;100.00;102397.16;5008493;28;20191;-72
2023/06/05 00:26:19;;;;;;;7.90;4.20;;;;;;;12.12;100.00;102401.31;5001997;28;20237;-72
2023/06/05 00:28:47;;;;;;;6.37;4.00;;;;;;;12.09;100.00;102402.06;4992655;28;20249;-74
2023/06/05 00:31:18;;;;;;;5.80;4.13;;;;;;;12.08;100.00;102404.56;4994289;28;20606;-74
2023/06/05 00:33:44;;;;;;;5.33;4.20;;;;;;;12.04;100.00;102402.69;4987131;28;20652;-71
2023/06/05 00:36:11;;;;;;;8.30;4.60;;;;;;;11.91;100.00;102396.22;4993440;28;20186;-72
2023/06/05 00:38:36;;;;;;;5.97;4.43;;;;;;;11.85;100.00;102403.66;4994812;28;20852;-74
2023/06/05 00:41:02;;;;;;;8.87;4.90;;;;;;;11.84;100.00;102407.06;5011729;28;20211;-72
2023/06/05 00:43:27;;;;;;;8.20;4.20;;;;;;;11.83;100.00;102409.56;4994546;28;20195;-71
2023/06/05 00:45:59;;;;;;;6.77;4.73;;;;;;;11.81;100.00;102406.06;4994108;28;20718;-74
2023/06/05 00:48:25;;;;;;;7.10;4.90;;;;;;;11.75;100.00;102405.84;5024341;28;20253;-72
2023/06/05 00:50:51;;;;;;;7.37;4.57;;;;;;;11.65;100.00;102403.69;5007025;28;20196;-75
2023/06/05 00:53:16;;;;;;;5.73;4.40;;;;;;;11.62;100.00;102403.59;5011444;28;20203;-72
2023/06/05 00:55:42;;;;;;;8.40;4.80;;;;;;;11.52;100.00;102404.00;5011624;28;20253;-72
2023/06/05 00:58:08;;;;;;;6.30;4.77;;;;;;;11.58;100.00;102402.56;4994242;28;20254;-74
2023/06/05 01:00:34;;;;;;;8.80;5.57;;;;;;;11.62;100.00;102396.75;4993335;28;20583;-73
2023/06/05 01:02:59;;;;;;;7.57;5.13;;;;;;;11.62;100.00;102399.31;5006484;28;20223;-72
2023/06/05 01:05:26;;;;;;;8.67;5.67;;;;;;;11.62;100.00;102395.88;5006655;28;20202;-71
2023/06/05 01:07:51;;;;;;;10.60;4.83;;;;;;;11.63;100.00;102395.97;5011116;28;20195;-72
2023/06/05 01:10:17;;;;;;;9.73;5.30;;;;;;;11.56;100.00;102393.06;4993527;28;20688;-75
2023/06/05 01:13:21;;;;;;;7.90;5.60;;;;;;;11.56;100.00;102399.03;4993471;28;20222;-72
2023/06/05 01:15:48;;;;;;;7.90;5.13;;;;;;;11.55;100.00;102394.72;4988133;28;20195;-72
2023/06/05 01:18:14;;;;;;;10.07;5.33;;;;;;;11.52;100.00;102402.28;5009910;28;20261;-76
2023/06/05 01:20:41;;;;;;;8.70;5.23;;;;;;;11.54;100.00;102398.13;4993374;28;20215;-72
2023/06/05 01:23:08;;;;;;;7.37;5.90;;;;;;;11.53;100.00;102396.34;5006956;28;20640;-72
2023/06/05 01:25:36;;;;;;;8.53;4.87;;;;;;;11.48;100.00;102384.16;4992960;28;20230;-70
2023/06/05 01:28:08;;;;;;;9.57;5.40;;;;;;;11.48;100.00;102385.03;4993536;28;20203;-74
2023/06/05 01:30:36;;;;;;;6.30;4.93;;;;;;;11.41;100.00;102388.16;4991771;28;20589;-72
2023/06/05 01:33:17;;;;;;;7.53;5.53;;;;;;;11.37;100.00;102390.53;4976458;28;20309;-73
2023/06/05 01:35:44;;;;;;;8.70;5.40;;;;;;;11.28;100.00;102385.03;4997467;28;20830;-73
2023/06/05 01:38:11;;;;;;;8.57;5.30;;;;;;;11.33;100.00;102386.13;4993202;28;20215;-72
2023/06/05 01:40:37;;;;;;;9.17;6.10;;;;;;;11.37;100.00;102387.97;5019476;28;20261;-73
2023/06/05 01:43:05;;;;;;;8.67;5.43;;;;;;;11.29;100.00;102385.09;4984115;28;20293;-73
2023/06/05 01:45:32;;;;;;;9.27;5.47;;;;;;;11.37;100.00;102368.34;5023789;28;20202;-74
2023/06/05 01:47:58;;;;;;;9.80;5.53;;;;;;;11.37;100.00;102381.16;5010710;28;20245;-74
2023/06/05 01:50:24;;;;;;;7.93;5.63;;;;;;;11.33;100.00;102379.28;4994899;28;20195;-74
2023/06/05 01:52:52;;;;;;;10.43;6.07;;;;;;;11.26;100.00;102386.66;5004251;28;20552;-72
2023/06/05 01:55:26;;;;;;;7.97;6.00;;;;;;;11.27;100.00;102381.59;4992089;28;20206;-76
2023/06/05 01:57:52;;;;;;;11.67;6.13;;;;;;;11.23;100.00;102378.84;4986121;28;20795;-73
2023/06/05 02:00:18;;;;;;;8.93;6.17;;;;;;;11.18;100.00;102378.66;5025297;28;20230;-73
2023/06/05 02:02:47;;;;;;;9.43;5.63;;;;;;;11.11;100.00;102378.34;4992098;28;20218;-73
2023/06/05 02:05:14;;;;;;;12.40;5.97;;;;;;;11.17;100.00;102373.47;4992620;28;20210;-74
2023/06/05 02:07:53;;;;;;;8.13;5.93;;;;;;;11.16;100.00;102371.72;4992223;28;20688;-74
2023/06/05 02:10:19;;;;;;;7.97;5.97;;;;;;;11.18;100.00;102372.66;4985809;28;20195;-73
2023/06/05 02:12:45;;;;;;;7.60;5.87;;;;;;;11.18;100.00;102365.84;4991867;28;20243;-72
2023/06/05 02:15:14;;;;;;;10.77;5.77;;;;;;;11.15;100.00;102372.53;4992429;28;20194;-74
2023/06/05 02:17:52;;;;;;;8.97;5.97;;;;;;;11.10;100.00;102363.78;4992017;28;20271;-72
2023/06/05 02:20:19;;;;;;;10.20;5.90;;;;;;;11.03;100.00;102360.09;4992756;28;20760;-73
2023/06/05 02:22:45;;;;;;;9.43;6.07;;;;;;;11.02;100.00;102370.28;5009727;28;20230;-73
2023/06/05 02:25:12;;;;;;;8.60;6.13;;;;;;;11.01;100.00;102358.28;5009415;28;20781;-73
2023/06/05 02:27:38;;;;;;;11.07;6.27;;;;;;;10.94;100.00;102356.25;5005719;28;20664;-72
2023/06/05 02:30:04;;;;;;;8.87;6.10;;;;;;;10.92;100.00;102363.00;5007055;28;20199;-72
2023/06/05 02:32:31;;;;;;;10.87;7.20;;;;;;;10.87;100.00;102356.81;4991482;28;20234;-72
2023/06/05 02:34:57;;;;;;;11.33;7.10;;;;;;;10.93;100.00;102359.63;4975183;28;20187;-74
2023/06/05 02:37:27;;;;;;;9.53;6.70;;;;;;;10.95;100.00;102355.44;4983812;28;20617;-75
2023/06/05 02:39:53;;;;;;;7.97;6.73;;;;;;;10.91;100.00;102356.09;4991903;28;20715;-73
2023/06/05 02:42:19;;;;;;;10.33;7.10;;;;;;;10.90;100.00;102347.56;4991259;28;20222;-75
2023/06/05 02:44:46;;;;;;;12.67;6.60;;;;;;;10.94;100.00;102339.19;4975188;28;20210;-72
2023/06/05 02:47:12;;;;;;;8.57;6.27;;;;;;;10.95;100.00;102337.50;5022668;28;20195;-72
2023/06/05 02:49:38;;;;;;;10.10;6.60;;;;;;;10.94;100.00;102341.75;4991111;28;20187;-72
2023/06/05 02:52:05;;;;;;;9.03;6.33;;;;;;;10.86;100.00;102340.56;4994028;28;20286;-72
2023/06/05 02:54:30;;;;;;;12.50;7.33;;;;;;;10.86;100.00;102332.88;5023760;28;20206;-72
2023/06/05 02:57:00;;;;;;;8.97;6.60;;;;;;;10.90;100.00;102337.31;4986653;28;20231;-72
2023/06/05 02:59:27;;;;;;;11.17;7.53;;;;;;;10.95;100.00;102332.38;4989469;28;20221;-71
2023/06/05 03:01:54;;;;;;;9.10;6.73;;;;;;;10.94;100.00;102333.19;4991256;28;20214;-72
2023/06/05 03:04:21;;;;;;;12.47;6.87;;;;;;;10.91;100.00;102333.94;5022562;28;20583;-76
2023/06/05 03:06:48;;;;;;;9.97;6.87;;;;;;;10.90;100.00;102346.69;4987473;28;20190;-71
2023/06/05 03:09:13;;;;;;;11.67;7.57;;;;;;;10.92;100.00;102339.94;4988207;28;20242;-73
2023/06/05 03:11:40;;;;;;;10.60;7.30;;;;;;;10.93;100.00;102337.41;5009225;28;20211;-72
2023/06/05 03:14:07;;;;;;;10.97;7.33;;;;;;;10.93;100.00;102339.97;4971182;28;20215;-72
2023/06/05 03:16:41;;;;;;;10.03;7.67;;;;;;;10.88;100.00;102348.31;4991024;28;20202;-74
2023/06/05 03:19:13;;;;;;;8.70;7.20;;;;;;;10.90;100.00;102342.44;4982540;28;20191;-73
2023/06/05 03:21:42;;;;;;;11.13;8.03;;;;;;;10.89;100.00;102340.69;4990568;28;20693;-72
2023/06/05 03:24:14;;;;;;;10.47;7.63;;;;;;;10.92;100.00;102342.50;4991404;28;20199;-72
2023/06/05 03:26:41;;;;;;;9.27;7.40;;;;;;;10.88;100.00;102349.16;4991203;28;20248;-72
2023/06/05 03:29:08;;;;;;;11.17;8.37;;;;;;;10.92;100.00;102337.38;4992247;28;20650;-71
2023/06/05 03:31:35;;;;;;;12.43;8.37;;;;;;;10.92;100.00;102343.38;4990962;28;20294;-73
2023/06/05 03:34:02;;;;;;;9.30;7.80;;;;;;;10.89;100.00;102340.69;4990772;28;20195;-73
2023/06/05 03:36:29;;;;;;;10.17;7.77;;;;;;;10.88;100.00;102336.34;5023299;28;20433;-71
2023/06/05 03:38:56;;;;;;;10.53;7.60;;;;;;;10.88;100.00;102343.19;4975029;28;20290;-72
2023/06/05 03:41:23;;;;;;;10.37;8.23;;;;;;;10.89;100.00;102338.13;4990423;28;20716;-73
2023/06/05 03:43:49;;;;;;;12.03;8.67;;;;;;;10.88;100.00;102330.38;4985152;28;20726;-73
2023/06/05 03:46:18;;;;;;;11.47;7.90;;;;;;;10.85;100.00;102332.81;4991716;28;20191;-72
2023/06/05 03:48:45;;;;;;;10.90;7.30;;;;;;;10.79;100.00;102340.25;4974832;28;20245;-73
2023/06/05 03:51:11;;;;;;;8.93;7.33;;;;;;;10.83;100.00;102342.13;4985632;28;20290;-73
2023/06/05 03:53:39;;;;;;;11.70;8.53;;;;;;;10.90;100.00;102331.31;5008105;28;20286;-72
2023/06/05 03:56:06;;;;;;;10.50;7.80;;;;;;;10.90;100.00;102332.19;4991077;28;20202;-72
2023/06/05 03:58:38;;;;;;;14.43;7.87;;;;;;;10.92;100.00;102335.69;4990453;28;20229;-72
2023/06/05 04:01:04;;;;;;;10.03;7.80;;;;;;;10.97;100.00;102335.88;4987362;28;20222;-72
2023/06/05 04:03:30;;;;;;;11.53;7.73;;;;;;;11.01;100.00;102337.78;4991849;28;20194;-75
2023/06/05 04:05:55;;;;;;;15.80;8.17;;;;;;;11.02;100.00;102331.81;4979472;28;20225;-72
2023/06/05 04:08:21;;;;;;;15.53;8.17;;;;;;;11.05;100.00;102344.75;4994659;28;20249;-73
2023/06/05 04:10:47;;;;;;;9.63;7.73;;;;;;;11.08;100.00;102348.34;4995451;28;20554;-72
2023/06/05 04:13:12;;;;;;;10.60;7.73;;;;;;;11.12;100.00;102349.31;4977073;28;20200;-72
2023/06/05 04:15:38;;;;;;;9.83;7.53;;;;;;;11.16;100.00;102352.06;4992971;28;20195;-72
2023/06/05 04:18:05;;;;;;;11.77;7.70;;;;;;;11.19;100.00;102349.63;4995071;28;20229;-73
2023/06/05 04:20:30;;;;;;;12.70;7.73;;;;;;;11.24;100.00;102344.72;4994476;28;20246;-73
2023/06/05 04:22:56;;;;;;;11.10;8.00;;;;;;;11.29;100.00;102346.63;4994336;28;20211;-72
2023/06/05 04:25:22;;;;;;;10.63;7.50;;;;;;;11.36;100.00;102346.06;4994326;28;20194;-73
2023/06/05 04:27:50;;;;;;;10.83;6.83;;;;;;;11.40;100.00;102349.63;4995343;28;20210;-72
2023/06/05 04:30:15;;;;;;;11.27;7.30;;;;;;;11.49;100.00;102352.56;4994670;28;20199;-72
2023/06/05 04:32:42;;;;;;;11.80;7.50;;;;;;;11.57;100.00;102349.47;4977649;28;20215;-72
2023/06/05 04:35:09;;;;;;;9.00;7.30;;;;;;;11.64;100.00;102346.38;4994104;28;20274;-72
2023/06/05 04:37:36;;;;;;;13.63;8.00;;;;;;;11.72;100.00;102351.81;4994239;28;20217;-74
2023/06/05 04:40:08;;;;;;;10.47;7.67;;;;;;;11.78;100.00;102340.09;5012174;28;20206;-71
2023/06/05 04:42:34;;;;;;;14.37;7.67;;;;;;;11.86;100.00;102338.72;4977579;28;20218;-72
2023/06/05 04:45:05;;;;;;;11.37;8.00;;;;;;;11.91;100.00;102334.63;4994479;28;20195;-72
2023/06/05 04:47:33;;;;;;;12.90;8.77;;;;;;;12.04;100.00;102341.09;5025989;28;20560;-73
2023/06/05 04:50:03;;;;;;;11.70;7.80;;;;;;;12.10;100.00;102342.19;4990355;28;20202;-74
2023/06/05 04:52:30;;;;;;;9.40;7.90;;;;;;;12.20;100.00;102341.69;4993549;28;20309;-72
2023/06/05 04:55:01;;;;;;;13.23;8.80;;;;;;;12.30;100.00;102340.34;4995333;28;20193;-72
2023/06/05 04:57:27;;;;;;;13.17;7.90;;;;;;;12.37;100.00;102340.63;4977399;28;20202;-73
2023/06/05 04:59:53;;;;;;;10.67;7.90;;;;;;;12.44;100.00;102345.16;4994047;28;20220;-72
2023/06/05 05:02:19;;;;;;;11.43;7.83;;;;;;;12.54;100.00;102349.78;5023922;28;20227;-72
2023/06/05 05:04:45;;;;;;;9.77;7.67;;;;;;;12.64;100.00;102340.72;4977865;28;20233;-72
2023/06/05 05:07:15;;;;;;;12.93;7.77;;;;;;;12.73;100.00;102343.63;4994220;28;20210;-72
2023/06/05 05:09:42;;;;;;;12.30;7.70;;;;;;;12.82;100.00;102338.78;5008935;28;20191;-72
2023/06/05 05:12:09;;;;;;;9.93;7.23;;;;;;;12.87;100.00;102332.09;4995072;28;20211;-72
2023/06/05 05:14:35;;;;;;;9.23;7.00;;;;;;;13.00;100.00;102331.75;4992319;28;20652;-73
2023/06/05 05:17:04;;;;;;;12.43;7.70;;;;;;;13.13;100.00;102336.47;4994710;28;20241;-71
2023/06/05 05:19:30;;;;;;;9.97;6.90;;;;;;;13.25;100.00;102342.00;4993248;28;20233;-72
2023/06/05 05:21:58;;;;;;;9.83;7.07;;;;;;;13.36;100.00;102342.34;4977350;28;20207;-71
2023/06/05 05:24:24;;;;;;;11.33;7.80;;;;;;;13.46;100.00;102336.66;4993635;28;20194;-71
2023/06/05 05:26:51;;;;;;;10.57;7.20;;;;;;;13.52;100.00;102329.13;4994609;28;20191;-71
2023/06/05 05:29:17;;;;;;;11.10;6.97;;;;;;;13.65;100.00;102339.88;5010209;28;20190;-75
2023/06/05 05:31:44;;;;;;;9.13;6.47;;;;;;;13.73;100.00;102335.84;4992174;28;20656;-73
2023/06/05 05:34:09;;;;;;;8.40;7.03;;;;;;;13.85;100.00;102341.34;4976457;28;20203;-74
2023/06/05 05:36:36;;;;;;;10.30;6.97;;;;;;;13.98;100.00;102345.16;5001040;28;20253;-73
2023/06/05 05:39:03;;;;;;;8.10;7.13;;;;;;;14.15;100.00;102331.06;4977930;28;20225;-71
2023/06/05 05:41:29;;;;;;;9.93;6.37;;;;;;;14.31;100.00;102339.31;4996631;28;20226;-72
2023/06/05 05:43:56;;;;;;;9.43;6.67;;;;;;;14.39;100.00;102331.78;4992429;28;20194;-72
2023/06/05 05:46:21;;;;;;;10.37;7.30;;;;;;;14.56;100.00;102333.13;5008739;28;20210;-73
2023/06/05 05:48:47;;;;;;;10.93;6.43;;;;;;;14.72;100.00;102331.00;5005490;28;20210;-71
2023/06/05 05:51:12;;;;;;;11.60;6.30;;;;;;;14.80;100.00;102332.09;4990103;28;20225;-72
2023/06/05 05:53:37;;;;;;;9.70;6.27;;;;;;;14.95;100.00;102329.00;5002689;28;20234;-73
2023/06/05 05:56:03;;;;;;;8.70;5.80;;;;;;;15.10;100.00;102334.56;5010130;28;20195;-71
2023/06/05 05:58:29;;;;;;;9.23;5.87;;;;;;;15.23;100.00;102334.91;4993616;28;20669;-71
2023/06/05 06:00:55;;;;;;;8.37;5.80;;;;;;;15.32;100.00;102340.28;5007945;28;20226;-72
2023/06/05 06:03:21;;;;;;;8.73;5.43;;;;;;;15.50;100.00;102332.13;4989511;28;20199;-72
2023/06/05 06:05:46;;;;;;;11.17;5.97;;;;;;;15.66;100.00;102336.81;5009917;28;20206;-72
2023/06/05 06:08:12;;;;;;;8.27;5.80;;;;;;;15.78;100.00;102337.09;5010251;28;20201;-71
2023/06/05 06:10:37;;;;;;;7.13;4.97;;;;;;;15.90;100.00;102335.66;5005753;28;20195;-73
2023/06/05 06:13:04;;;;;;;5.93;4.73;;;;;;;16.02;100.00;102335.91;5008265;28;20250;-71
2023/06/05 06:15:31;;;;;;;12.03;5.40;;;;;;;16.19;100.00;102346.59;5008827;28;20207;-72
2023/06/05 06:17:56;;;;;;;5.17;4.23;;;;;;;16.27;100.00;102326.94;5004096;28;20222;-73
2023/06/05 06:20:22;;;;;;;6.90;4.30;;;;;;;16.45;100.00;102322.19;5004962;28;20566;-71
2023/06/05 06:22:48;;;;;;;8.87;4.83;;;;;;;16.60;100.00;102330.22;5009426;28;20219;-74
2023/06/05 06:25:17;;;;;;;7.93;4.77;;;;;;;16.70;100.00;102321.78;5009973;28;20195;-72
2023/06/05 06:27:45;;;;;;;6.37;4.50;;;;;;;16.78;100.00;102325.38;5006597;28;20740;-74
2023/06/05 06:30:12;;;;;;;8.13;4.67;;;;;;;16.84;100.00;102313.44;5008513;28;20298;-73
2023/06/05 06:32:37;;;;;;;6.97;4.30;;;;;;;17.00;100.00;102306.81;5007136;28;20223;-73
2023/06/05 06:35:03;;;;;;;7.23;4.47;;;;;;;17.20;100.00;102297.63;4993405;28;20201;-72
2023/06/05 06:37:29;;;;;;;6.60;4.10;;;;;;;17.28;100.00;102283.09;5007203;28;20286;-73
2023/06/05 06:39:54;;;;;;;6.33;4.47;;;;;;;17.30;100.00;102252.91;5009219;28;20596;-73
2023/06/05 06:42:20;;;;;;;6.97;4.53;;;;;;;17.50;100.00;102261.88;4990800;28;20250;-72
2023/06/05 06:44:59;;;;;;;6.83;3.90;;;;;;;17.62;100.00;102230.94;4990614;28;20201;-72
2023/06/05 06:47:25;;;;;;;8.63;4.20;;;;;;;17.68;100.00;102250.03;5005529;28;20194;-71
2023/06/05 06:49:51;;;;;;;9.50;4.47;;;;;;;17.90;100.00;102267.59;5008956;28;20195;-72
2023/06/05 06:52:18;;;;;;;7.33;4.13;;;;;;;18.01;100.00;102218.47;5005737;28;20235;-73
2023/06/05 06:54:44;;;;;;;5.80;3.90;;;;;;;18.14;100.00;102215.16;4988867;28;20191;-72
2023/06/05 06:57:09;;;;;;;6.87;4.50;;;;;;;18.23;100.00;102159.06;4993609;28;20290;-72
2023/06/05 06:59:35;;;;;;;5.93;3.87;;;;;;;18.32;100.00;102174.72;5005607;28;20290;-72
2023/06/05 07:02:13;;;;;;;6.17;3.83;;;;;;;18.56;100.00;102164.56;5004899;28;20219;-72
2023/06/05 07:04:41;;;;;;;5.27;3.67;;;;;;;18.50;100.00;102156.75;5005561;28;20186;-73
2023/06/05 07:07:08;;;;;;;7.70;3.93;;;;;;;18.68;100.00;102167.28;5008805;28;20198;-74
2023/06/05 07:09:34;;;;;;;5.87;3.80;;;;;;;18.89;100.00;102156.19;5008563;28;20198;-72
2023/06/05 07:12:04;;;;;;;5.60;3.87;;;;;;;18.95;100.00;102151.91;4988618;28;20219;-72
2023/06/05 07:14:30;;;;;;;5.10;3.80;;;;;;;19.14;100.00;102119.09;5004723;28;20270;-72
2023/06/05 07:16:56;;;;;;;5.47;3.50;;;;;;;19.20;100.00;102098.38;5006398;28;20282;-73
2023/06/05 07:19:22;;;;;;;5.03;3.70;;;;;;;19.45;100.00;102108.88;5007461;28;20698;-73
2023/06/05 07:21:47;;;;;;;7.63;3.57;;;;;;;19.48;100.00;102079.44;5007803;28;20219;-72
2023/06/05 07:24:14;;;;;;;5.47;3.13;;;;;;;19.70;100.00;102095.09;5008922;28;20199;-73
2023/06/05 07:26:39;;;;;;;4.37;3.30;;;;;;;19.51;100.00;102040.44;5008747;28;20205;-73
2023/06/05 07:29:05;;;;;;;5.13;3.10;;;;;;;19.82;100.00;102045.72;5005970;28;20286;-73
2023/06/05 07:31:31;;;;;;;4.87;3.67;;;;;;;19.92;100.00;102016.25;5003579;28;20219;-72
2023/06/05 07:33:56;;;;;;;4.67;3.20;;;;;;;20.26;100.00;102038.81;4990700;28;20218;-72
2023/06/05 07:36:22;;;;;;;4.50;3.10;;;;;;;20.26;100.00;101971.16;5009033;28;20203;-73
2023/06/05 07:38:48;;;;;;;5.53;2.80;;;;;;;20.38;100.00;101973.75;4989675;28;20199;-73
2023/06/05 07:41:13;;;;;;;5.53;3.27;;;;;;;20.32;100.00;101959.88;4990432;28;20226;-73
2023/06/05 07:43:42;;;;;;;2.97;2.50;;;;;;;20.50;100.00;101983.25;5005911;28;20270;-73
2023/06/05 07:46:08;;;;;;;6.13;3.00;;;;;;;20.70;100.00;101971.91;4990452;28;20194;-73
2023/06/05 07:48:35;;;;;;;6.30;3.43;;;;;;;20.34;89.59;101903.47;5004866;28;20195;-74
2023/06/05 07:51:01;;;;;;;6.33;3.07;;;;;;;20.64;97.52;101950.22;5007339;28;20183;-73
2023/06/05 07:53:26;;;;;;;9.20;2.93;;;;;;;20.84;93.90;101964.03;5005767;28;20205;-74
2023/06/05 07:55:52;;;;;;;4.03;2.87;;;;;;;20.93;93.42;101941.44;5008038;28;20203;-72
2023/06/05 07:58:18;;;;;;;3.57;2.67;;;;;;;21.23;84.71;101907.38;4991275;28;20207;-73
2023/06/05 08:00:47;;;;;;;4.73;2.67;;;;;;;21.50;85.32;101921.94;5005311;28;20215;-73
2023/06/05 08:03:19;;;;;;;5.93;2.77;;;;;;;21.59;83.31;101919.25;5007852;28;20237;-73
2023/06/05 08:05:49;;;;;;;6.57;3.00;;;;;;;21.67;89.07;101962.66;5004982;28;20191;-73
2023/06/05 08:08:16;;;;;;;4.77;3.03;;;;;;;22.01;83.88;101931.94;4990653;28;20230;-71
2023/06/05 08:10:41;;;;;;;3.27;2.40;;;;;;;21.92;77.69;101905.97;5005314;28;20270;-71
2023/06/05 08:13:08;;;;;;;3.33;2.60;;;;;;;21.87;73.95;101915.56;5006860;28;20982;-71
2023/06/05 08:15:33;;;;;;;4.03;3.00;;;;;;;21.95;73.42;101922.44;5003796;28;20210;-72
2023/06/05 08:17:59;;;;;;;3.93;2.77;;;;;;;21.77;71.63;101922.63;4992688;28;20658;-72
2023/06/05 08:20:24;;;;;;;5.50;2.17;;;;;;;21.92;78.41;101963.38;4974321;28;20226;-73
2023/06/05 08:22:50;;;;;;;4.13;2.40;;;;;;;22.07;78.26;101969.28;5007585;28;20643;-72
2023/06/05 08:25:15;;;;;;;3.73;2.30;;;;;;;22.46;76.31;101954.97;4989658;28;20310;-73
2023/06/05 08:27:41;;;;;;;4.33;2.60;;;;;;;22.67;76.49;101965.19;5007137;28;20198;-70
2023/06/05 08:30:08;;;;;;;6.13;2.53;;;;;;;22.69;73.52;101954.72;4993418;28;20714;-73
2023/06/05 08:32:33;;;;;;;9.10;4.37;;;;;;;23.09;73.01;101941.09;4990642;28;20231;-73
2023/06/05 08:34:59;;;;;;;5.73;2.90;;;;;;;23.01;63.49;101915.97;5008486;28;20420;-73
2023/06/05 08:37:25;;;;;;;73.60;27.63;;;;;;;22.90;67.18;101963.16;5008526;28;20214;-73
2023/06/05 08:39:51;;;;;;;22.23;7.07;;;;;;;22.49;70.10;101995.84;4990469;28;20211;-75
2023/06/05 08:42:18;;;;;;;9.23;5.17;;;;;;;22.77;65.40;101961.56;5006279;28;20723;-73
2023/06/05 08:44:47;;;;;;;40.87;13.73;;;;;;;23.00;67.15;101980.44;5004707;28;20225;-73
2023/06/05 08:47:14;;;;;;;10.20;4.40;;;;;;;23.45;65.87;101986.78;5008377;28;20209;-73
2023/06/05 08:49:41;;;;;;;37.53;16.77;;;;;;;23.63;65.43;101986.53;5008800;28;20183;-77
2023/06/05 08:52:08;;;;;;;24.13;9.77;;;;;;;23.81;63.83;101981.84;4993879;28;20295;-73
2023/06/05 08:54:41;;;;;;;4.28;2.30;;;;;;;24.10;60.28;101976.13;5026550;28;20222;-73
2023/06/05 08:57:07;;;;;;;9.25;4.75;;;;;;;24.04;59.59;101978.88;4992202;28;20202;-73
2023/06/05 08:59:33;;;;;;;6.40;2.80;;;;;;;23.58;59.68;102001.44;5010612;28;20220;-74
2023/06/05 09:01:59;;;;;;;8.70;3.47;;;;;;;24.08;59.94;101991.88;5010658;28;20222;-72
2023/06/05 09:04:29;;;;;;;3.70;2.37;;;;;;;24.14;53.31;101969.97;4994180;28;20207;-72
2023/06/05 09:06:56;;;;;;;4.72;2.30;;;;;;;24.34;53.24;101973.94;4991406;28;20202;-72
2023/06/05 09:09:22;;;;;;;3.42;2.03;;;;;;;24.54;53.68;101981.44;5011036;28;20195;-72
2023/06/05 09:11:47;;;;;;;2.55;2.20;;;;;;;24.64;49.00;101962.88;5010573;28;20301;-72
2023/06/05 09:14:13;;;;;;;3.90;1.90;;;;;;;24.42;48.34;101971.19;5009944;28;20195;-72
2023/06/05 09:16:42;;;;;;;2.33;1.80;;;;;;;24.60;46.74;101956.00;5004917;28;20583;-73
2023/06/05 09:19:12;;;;;;;4.30;1.65;;;;;;;24.79;47.28;102008.91;5006830;28;20234;-72
2023/06/05 09:21:38;;;;;;;4.00;1.90;;;;;;;24.96;45.70;101991.06;5009308;28;20446;-74
2023/06/05 09:24:09;;;;;;;4.40;2.00;;;;;;;24.07;44.84;101984.91;4992561;28;20199;-73
2023/06/05 09:26:57;;;;;;;3.50;2.10;;;;;;;24.32;44.71;101987.97;5005408;28;20502;-72
2023/06/05 09:29:30;;;;;;;3.00;1.90;;;;;;;24.35;45.41;102014.94;5006893;28;20828;-73
2023/06/05 09:31:58;;;;;;;4.20;1.87;;;;;;;24.70;47.17;102051.00;5010119;28;20450;-75
2023/06/05 09:34:37;;;;;;;6.83;2.73;;;;;;;24.04;47.09;102045.16;5008953;28;20427;-75
2023/06/05 09:37:04;;;;;;;3.40;2.03;;;;;;;24.71;43.81;101982.84;5008102;28;20439;-73
2023/06/05 09:39:31;;;;;;;4.75;2.10;;;;;;;24.83;42.86;101981.72;5009095;28;20461;-74
2023/06/05 09:41:58;;;;;;;3.72;2.13;;;;;;;24.98;43.79;102005.88;4991591;28;20454;-72
2023/06/05 09:44:26;;;;;;;2.72;1.75;;;;;;;25.23;43.69;101999.19;5006357;28;20720;-72
2023/06/05 09:46:53;;;;;;;2.17;1.70;;;;;;;25.12;43.92;102016.94;5010792;28;20213;-72
2023/06/05 09:49:19;;;;;;;3.35;2.08;;;;;;;25.57;43.14;102015.06;5011253;28;20241;-74
2023/06/05 09:51:46;;;;;;;3.70;2.00;;;;;;;25.19;42.19;102007.16;5007284;28;20247;-75
2023/06/05 09:54:12;;;;;;;3.47;1.70;;;;;;;25.71;42.66;102031.34;5008048;28;20212;-73
2023/06/05 09:56:40;;;;;;;1.85;1.63;;;;;;;25.28;41.93;102022.75;5010361;28;20206;-73
2023/06/05 09:59:07;;;;;;;2.25;1.80;;;;;;;25.49;42.08;102017.00;5012848;28;20199;-74
2023/06/05 10:01:36;;;;;;;2.70;1.70;;;;;;;25.90;40.41;101994.13;5005580;28;20658;-74
2023/06/05 10:04:08;;;;;;;6.13;1.50;;;;;;;25.81;38.96;102069.59;5009011;28;20286;-73
2023/06/05 10:06:34;;;;;;;2.25;1.45;;;;;;;25.88;39.33;102071.19;5010184;28;20195;-73
2023/06/05 10:09:00;;;;;;;1.90;1.60;;;;;;;25.06;40.31;102095.75;4987766;28;20191;-75
2023/06/05 10:11:26;;;;;;;3.13;1.80;;;;;;;24.65;41.15;102118.38;4992562;28;20465;-74
2023/06/05 10:13:53;;;;;;;2.97;1.80;;;;;;;25.55;41.98;102132.34;5009873;28;20427;-73
2023/06/05 10:16:19;;;;;;;3.60;2.13;;;;;;;26.31;43.18;102166.47;4973223;28;20441;-74
2023/06/05 10:18:49;;;;;;;3.33;2.13;;;;;;;26.33;42.00;102125.28;5008213;28;20656;-76
2023/06/05 10:21:18;;;;;;;2.50;2.00;;;;;;;26.46;41.78;102106.53;4988381;28;20458;-73
2023/06/05 10:24:04;;;;;;;3.75;2.08;;;;;;;26.88;42.67;102122.94;5005681;28;20199;-74
2023/06/05 10:27:09;;;;;;;2.53;1.90;;;;;;;26.96;41.21;102084.16;5006717;28;20434;-74
2023/06/05 10:29:50;;;;;;;3.23;2.20;;;;;;;27.34;42.05;102079.56;5007308;28;20430;-74
2023/06/05 10:32:28;;;;;;;4.85;1.75;;;;;;;27.57;41.64;102070.94;5007310;28;20457;-74
2023/06/05 10:34:59;;;;;;;2.93;1.83;;;;;;;27.67;41.11;102056.59;5006796;28;20769;-74
2023/06/05 10:37:56;;;;;;;3.85;2.10;;;;;;;27.74;40.13;102053.72;5005152;28;20446;-73
2023/06/05 10:40:23;;;;;;;3.60;2.10;;;;;;;27.60;37.77;102044.53;5004484;28;20446;-74
2023/06/05 10:42:48;;;;;;;2.72;1.95;;;;;;;27.66;37.09;102058.38;5007430;28;20447;-74
2023/06/05 10:45:30;;;;;;;3.55;1.90;;;;;;;27.53;38.43;102069.34;5006183;28;20546;-73
2023/06/05 10:47:56;;;;;;;2.38;1.77;;;;;;;27.30;37.51;102058.66;5010993;28;20194;-71
2023/06/05 10:50:24;;;;;;;2.83;1.80;;;;;;;27.83;38.17;102078.94;5008935;28;20264;-73
2023/06/05 10:52:52;;;;;;;2.53;1.88;;;;;;;27.81;36.81;102044.72;5005786;28;20210;-70
2023/06/05 10:55:18;;;;;;;2.42;1.90;;;;;;;27.98;38.97;102094.25;5008003;28;20191;-72
2023/06/05 10:58:03;;;;;;;2.83;1.90;;;;;;;27.77;37.92;102056.25;5013052;28;20219;-74
2023/06/05 11:00:30;;;;;;;3.97;2.03;;;;;;;28.20;37.32;102063.63;5007629;28;20221;-72
2023/06/05 11:02:56;;;;;;;2.65;1.90;;;;;;;28.26;38.12;102045.84;5006734;28;20215;-73
2023/06/05 11:05:22;;;;;;;2.78;1.80;;;;;;;28.31;38.00;102051.81;5008630;28;20195;-74
2023/06/05 11:08:11;;;;;;;2.65;2.03;;;;;;;28.48;37.66;102046.88;4991359;28;20298;-74
2023/06/05 11:11:04;;;;;;;2.47;2.00;;;;;;;28.62;38.04;102043.72;4989608;28;20196;-72
2023/06/05 11:13:53;;;;;;;3.20;1.73;;;;;;;27.77;35.05;102037.81;5006788;28;20227;-71
2023/06/05 11:16:38;;;;;;;1.70;1.60;;;;;;;28.15;34.30;102039.22;4974398;28;20187;-73
2023/06/05 11:19:36;;;;;;;3.83;1.60;;;;;;;28.11;34.01;102041.09;5008806;28;20680;-73
2023/06/05 11:22:02;;;;;;;3.22;1.80;;;;;;;26.90;35.34;102069.41;5004179;28;20257;-71